Time,TemperatureF,DewpointF,PressureIn,WindDirection,WindDirectionDegrees,WindSpeedMPH,WindSpeedGustMPH,Humidity,HourlyPrecipIn,Conditions,Clouds,dailyrainin,SoftwareType,DateUTC
2013-11-14 00:04:00,58.8,53.4,30.10,North,359,2.7,6.1,82,-99.99,,,-99.99,PyWeather,2013-11-13 23:04:00,
2013-11-14 00:14:00,58.6,53.2,30.10,North,354,4.0,8.1,82,-99.99,,,-99.99,PyWeather,2013-11-13 23:14:00,
2013-11-14 00:24:00,58.8,53.4,30.10,North,9,3.8,11.9,82,-99.99,,,-99.99,PyWeather,2013-11-13 23:24:00,
2013-11-14 00:33:00,59.0,53.6,30.10,NNE,19,4.5,10.1,82,-99.99,,,-99.99,PyWeather,2013-11-13 23:33:00,
2013-11-14 00:43:00,59.4,53.8,30.09,North,5,3.4,6.1,82,-99.99,,,-99.99,PyWeather,2013-11-13 23:43:00,
2013-11-14 00:53:00,59.4,53.8,30.10,NNE,12,5.4,10.1,82,-99.99,,,-99.99,PyWeather,2013-11-13 23:53:00,
2013-11-14 01:03:00,59.4,53.8,30.10,North,11,4.5,11.0,82,-99.99,,,-99.99,PyWeather,2013-11-14 00:03:00,
2013-11-14 01:13:00,59.2,53.6,30.10,North,356,4.0,9.0,82,-99.99,,,-99.99,PyWeather,2013-11-14 00:13:00,
2013-11-14 01:22:00,59.4,53.6,30.10,North,4,6.3,11.0,81,-99.99,,,-99.99,PyWeather,2013-11-14 00:22:00,
2013-11-14 01:32:00,59.5,53.4,30.10,North,1,6.7,11.0,80,-99.99,,,-99.99,PyWeather,2013-11-14 00:32:00,
2013-11-14 01:42:00,59.9,53.8,30.10,North,354,6.3,11.0,80,-99.99,,,-99.99,PyWeather,2013-11-14 00:42:00,
2013-11-14 01:52:00,59.9,53.8,30.10,North,5,5.6,11.9,80,-99.99,,,-99.99,PyWeather,2013-11-14 00:52:00,
2013-11-14 02:01:00,59.9,53.8,30.10,North,5,6.7,13.0,80,-99.99,,,-99.99,PyWeather,2013-11-14 01:01:00,
2013-11-14 02:11:00,59.9,53.8,30.10,North,8,4.7,10.1,80,-99.99,,,-99.99,PyWeather,2013-11-14 01:11:00,
2013-11-14 02:21:00,59.9,53.8,30.10,North,360,4.5,8.1,80,-99.99,,,-99.99,PyWeather,2013-11-14 01:21:00,
2013-11-14 02:31:00,59.7,53.6,30.11,North,2,6.3,11.0,80,-99.99,,,-99.99,PyWeather,2013-11-14 01:31:00,
2013-11-14 02:41:00,59.7,54.0,30.11,North,8,4.5,10.1,81,-99.99,,,-99.99,PyWeather,2013-11-14 01:41:00,
2013-11-14 02:50:00,59.9,54.1,30.10,North,6,4.3,8.1,81,-99.99,,,-99.99,PyWeather,2013-11-14 01:50:00,
2013-11-14 03:00:00,59.9,54.1,30.11,NNW,348,2.7,4.9,81,-99.99,,,-99.99,PyWeather,2013-11-14 02:00:00,
2013-11-14 03:10:00,59.7,54.0,30.11,North,8,4.7,7.0,81,-99.99,,,-99.99,PyWeather,2013-11-14 02:10:00,
2013-11-14 03:20:00,59.9,53.8,30.10,NNE,28,4.0,9.0,80,-99.99,,,-99.99,PyWeather,2013-11-14 02:20:00,
2013-11-14 03:30:00,60.1,53.6,30.10,North,11,6.1,10.1,79,-99.99,,,-99.99,PyWeather,2013-11-14 02:30:00,
2013-11-14 03:39:00,60.1,53.6,30.10,NNE,17,6.1,11.9,79,-99.99,,,-99.99,PyWeather,2013-11-14 02:39:00,
2013-11-14 03:49:00,60.3,53.8,30.10,NNE,29,7.4,15.9,79,-99.99,,,-99.99,PyWeather,2013-11-14 02:49:00,
2013-11-14 03:59:00,60.3,54.1,30.10,NE,40,9.0,13.0,80,-99.99,,,-99.99,PyWeather,2013-11-14 02:59:00,
2013-11-14 04:09:00,60.3,54.1,30.10,NNE,30,6.5,13.0,80,-99.99,,,-99.99,PyWeather,2013-11-14 03:09:00,
2013-11-14 04:19:00,60.3,54.1,30.10,NNE,24,4.7,11.0,80,-99.99,,,-99.99,PyWeather,2013-11-14 03:19:00,
2013-11-14 04:28:00,60.1,54.0,30.10,NE,36,5.8,13.9,80,-99.99,,,-99.99,PyWeather,2013-11-14 03:28:00,
2013-11-14 04:38:00,60.1,54.0,30.10,NNE,23,5.2,10.1,80,-99.99,,,-99.99,PyWeather,2013-11-14 03:38:00,
2013-11-14 04:48:00,60.1,54.0,30.10,NNE,28,5.8,10.1,80,-99.99,,,-99.99,PyWeather,2013-11-14 03:48:00,
2013-11-14 04:58:00,60.1,54.0,30.10,NNE,31,5.2,9.0,80,-99.99,,,-99.99,PyWeather,2013-11-14 03:58:00,
2013-11-14 05:08:00,60.1,54.1,30.10,NNE,23,4.5,9.0,81,-99.99,,,-99.99,PyWeather,2013-11-14 04:08:00,
2013-11-14 05:17:00,59.9,54.1,30.10,NNE,33,5.6,13.0,81,-99.99,,,-99.99,PyWeather,2013-11-14 04:17:00,
2013-11-14 05:27:00,59.9,54.1,30.10,NNE,33,4.0,9.0,81,-99.99,,,-99.99,PyWeather,2013-11-14 04:27:00,
2013-11-14 05:37:00,59.7,54.0,30.10,NNE,27,3.6,8.1,81,-99.99,,,-99.99,PyWeather,2013-11-14 04:37:00,
2013-11-14 05:47:00,59.7,54.1,30.10,North,10,3.1,7.0,82,-99.99,,,-99.99,PyWeather,2013-11-14 04:47:00,
2013-11-14 05:56:00,59.7,54.5,30.10,NE,37,1.6,2.9,83,-99.99,,,-99.99,PyWeather,2013-11-14 04:56:00,
2013-11-14 06:01:00,59.7,54.5,30.10,NE,36,1.1,2.9,83,-99.99,,,-99.99,PyWeather,2013-11-14 05:01:00,
2013-11-14 06:06:00,59.7,54.5,30.10,NNW,345,1.8,4.9,83,-99.99,,,-99.99,PyWeather,2013-11-14 05:06:00,
2013-11-14 06:16:00,59.5,54.3,30.09,North,7,3.4,7.0,83,-99.99,,,-99.99,PyWeather,2013-11-14 05:16:00,
2013-11-14 06:21:00,59.5,54.3,30.09,North,7,2.2,4.0,83,-99.99,,,-99.99,PyWeather,2013-11-14 05:21:00,
2013-11-14 06:31:00,59.5,54.3,30.09,NNW,334,2.0,4.0,83,-99.99,,,-99.99,PyWeather,2013-11-14 05:31:00,
2013-11-14 06:36:00,59.5,54.3,30.09,NNW,338,1.1,2.9,83,-99.99,,,-99.99,PyWeather,2013-11-14 05:36:00,
2013-11-14 06:45:00,59.4,54.5,30.10,NNW,330,2.7,4.9,84,-99.99,,,-99.99,PyWeather,2013-11-14 05:45:00,
2013-11-14 06:55:00,59.2,54.7,30.10,NNW,336,2.5,4.0,85,-99.99,,,-99.99,PyWeather,2013-11-14 05:55:00,
2013-11-14 07:05:00,59.2,55.0,30.10,North,349,0.2,2.9,86,-99.99,,,-99.99,PyWeather,2013-11-14 06:05:00,
2013-11-14 07:15:00,59.2,55.0,30.10,NNW,343,1.6,2.9,86,-99.99,,,-99.99,PyWeather,2013-11-14 06:15:00,
2013-11-14 07:25:00,59.0,54.9,30.10,NNW,342,2.2,4.0,86,-99.99,,,-99.99,PyWeather,2013-11-14 06:25:00,
2013-11-14 07:34:00,59.0,55.2,30.11,North,354,0.9,2.9,87,-99.99,,,-99.99,PyWeather,2013-11-14 06:34:00,
2013-11-14 07:44:00,59.0,55.2,30.11,North,350,1.1,4.0,87,-99.99,,,-99.99,PyWeather,2013-11-14 06:44:00,
2013-11-14 07:54:00,59.0,55.2,30.11,North,351,1.1,2.9,87,-99.99,,,-99.99,PyWeather,2013-11-14 06:54:00,
2013-11-14 08:04:00,59.0,55.2,30.11,NNE,27,2.5,4.9,87,-99.99,,,0.01,PyWeather,2013-11-14 07:04:00,
2013-11-14 08:14:00,59.0,55.2,30.12,NNE,25,2.5,6.1,87,-99.99,,,0.01,PyWeather,2013-11-14 07:14:00,
2013-11-14 08:23:00,59.2,55.4,30.12,North,10,2.9,6.1,87,-99.99,,,0.01,PyWeather,2013-11-14 07:23:00,
2013-11-14 08:33:00,59.4,55.4,30.12,NNE,25,3.4,6.1,87,-99.99,,,0.01,PyWeather,2013-11-14 07:33:00,
2013-11-14 08:43:00,59.5,55.6,30.12,NNE,27,1.3,2.9,87,-99.99,,,0.01,PyWeather,2013-11-14 07:43:00,
2013-11-14 08:53:00,59.9,56.3,30.12,NNE,29,2.2,4.9,88,-99.99,,,0.01,PyWeather,2013-11-14 07:53:00,
2013-11-14 09:03:00,60.3,56.3,30.13,NNE,32,4.3,9.0,87,-99.99,,,0.01,PyWeather,2013-11-14 08:03:00,
2013-11-14 09:12:00,60.4,56.3,30.13,NNE,33,6.5,11.9,86,-99.99,,,0.01,PyWeather,2013-11-14 08:12:00,
2013-11-14 09:22:00,60.8,56.3,30.13,NNE,32,7.4,11.9,85,-99.99,,,0.01,PyWeather,2013-11-14 08:22:00,
2013-11-14 09:32:00,60.8,55.9,30.13,NE,36,7.9,11.9,84,-99.99,,,0.01,PyWeather,2013-11-14 08:32:00,
2013-11-14 09:42:00,60.8,56.3,30.13,NNE,30,3.4,8.1,85,-99.99,,,0.01,PyWeather,2013-11-14 08:42:00,
2013-11-14 09:51:00,61.2,56.3,30.13,North,3,6.5,13.0,84,-99.99,,,0.01,PyWeather,2013-11-14 08:51:00,
2013-11-14 10:01:00,60.8,56.3,30.14,NNE,25,5.2,10.1,85,-99.99,,,0.01,PyWeather,2013-11-14 09:01:00,
2013-11-14 10:11:00,60.4,55.9,30.14,NNE,27,4.3,8.1,85,-99.99,,,0.02,PyWeather,2013-11-14 09:11:00,
2013-11-14 10:21:00,59.9,55.8,30.14,NNE,33,5.2,10.1,86,0.65,,,0.06,PyWeather,2013-11-14 09:21:00,
2013-11-14 10:31:00,59.4,55.8,30.14,NE,37,3.4,7.0,88,-99.99,,,0.06,PyWeather,2013-11-14 09:31:00,
2013-11-14 10:40:00,59.2,55.6,30.15,NNW,346,2.5,6.1,88,0.36,,,0.09,PyWeather,2013-11-14 09:40:00,
2013-11-14 10:50:00,59.0,56.1,30.15,NNW,332,3.6,7.0,90,0.48,,,0.15,PyWeather,2013-11-14 09:50:00,
2013-11-14 11:00:00,58.5,55.8,30.15,WNW,290,5.4,9.0,91,0.75,,,0.19,PyWeather,2013-11-14 10:00:00,
2013-11-14 11:10:00,58.5,56.1,30.15,NNW,332,1.8,4.0,92,-99.99,,,0.20,PyWeather,2013-11-14 10:10:00,
2013-11-14 11:20:00,58.6,56.3,30.15,NW,322,1.1,2.9,92,-99.99,,,0.20,PyWeather,2013-11-14 10:20:00,
2013-11-14 11:29:00,58.6,56.3,30.15,NW,313,2.0,4.0,92,-99.99,,,0.20,PyWeather,2013-11-14 10:29:00,
2013-11-14 11:39:00,58.6,56.3,30.14,NW,315,1.1,2.9,92,-99.99,,,0.20,PyWeather,2013-11-14 10:39:00,
2013-11-14 11:49:00,58.8,56.8,30.14,North,3,0.9,4.0,93,0.84,,,0.24,PyWeather,2013-11-14 10:49:00,
2013-11-14 11:59:00,58.5,56.1,30.14,North,353,2.0,4.0,92,0.15,,,0.25,PyWeather,2013-11-14 10:59:00,
2013-11-14 12:09:00,58.3,56.3,30.14,North,359,1.8,6.1,93,-99.99,,,0.26,PyWeather,2013-11-14 11:09:00,
2013-11-14 12:18:00,58.5,56.5,30.14,NNW,329,3.1,7.0,93,0.24,,,0.28,PyWeather,2013-11-14 11:18:00,
2013-11-14 12:28:00,58.3,56.3,30.13,NNE,31,1.6,2.9,93,0.78,,,0.34,PyWeather,2013-11-14 11:28:00,
2013-11-14 12:38:00,58.3,56.3,30.13,NE,34,2.0,2.9,93,-99.99,,,0.35,PyWeather,2013-11-14 11:38:00,
2013-11-14 12:48:00,58.3,56.3,30.12,NNE,27,3.4,6.1,93,-99.99,,,0.35,PyWeather,2013-11-14 11:48:00,
2013-11-14 12:57:00,58.5,56.5,30.12,NNE,15,2.7,4.9,93,-99.99,,,0.35,PyWeather,2013-11-14 11:57:00,
2013-11-14 13:07:00,58.6,56.7,30.12,North,354,3.8,7.0,93,-99.99,,,0.35,PyWeather,2013-11-14 12:07:00,
2013-11-14 13:17:00,59.2,57.2,30.11,North,356,2.5,4.9,93,-99.99,,,0.35,PyWeather,2013-11-14 12:17:00,
2013-11-14 13:27:00,59.4,57.4,30.11,NNE,15,3.6,8.1,93,-99.99,,,0.35,PyWeather,2013-11-14 12:27:00,
2013-11-14 13:37:00,59.4,57.4,30.11,NE,37,2.2,4.0,93,-99.99,,,0.35,PyWeather,2013-11-14 12:37:00,
2013-11-14 13:46:00,59.4,57.0,30.11,NE,35,2.2,7.0,92,-99.99,,,0.35,PyWeather,2013-11-14 12:46:00,
2013-11-14 13:56:00,59.2,56.8,30.11,NE,39,3.6,6.1,92,-99.99,,,0.35,PyWeather,2013-11-14 12:56:00,
2013-11-14 14:06:00,59.2,56.8,30.10,NE,40,4.0,7.0,92,-99.99,,,0.35,PyWeather,2013-11-14 13:06:00,
2013-11-14 14:16:00,59.2,56.5,30.10,NE,36,2.5,9.0,91,-99.99,,,0.35,PyWeather,2013-11-14 13:16:00,
2013-11-14 14:26:00,59.4,56.5,30.10,NE,37,4.0,6.1,90,-99.99,,,0.35,PyWeather,2013-11-14 13:26:00,
2013-11-14 14:35:00,59.5,56.3,30.10,NNE,29,5.4,10.1,89,-99.99,,,0.35,PyWeather,2013-11-14 13:35:00,
2013-11-14 14:45:00,59.5,55.9,30.10,NNE,28,4.5,9.0,88,-99.99,,,0.35,PyWeather,2013-11-14 13:45:00,
2013-11-14 14:55:00,59.9,55.8,30.10,NE,41,4.5,10.1,86,-99.99,,,0.35,PyWeather,2013-11-14 13:55:00,
2013-11-14 15:05:00,59.7,55.2,30.10,NE,40,5.2,10.1,85,-99.99,,,0.35,PyWeather,2013-11-14 14:05:00,
2013-11-14 15:15:00,59.9,55.4,30.10,NNE,14,1.3,2.9,85,-99.99,,,0.35,PyWeather,2013-11-14 14:15:00,
2013-11-14 15:24:00,59.9,55.0,30.10,NE,40,4.3,8.1,84,-99.99,,,0.35,PyWeather,2013-11-14 14:24:00,
2013-11-14 15:34:00,60.3,55.0,30.10,NE,41,3.6,8.1,83,-99.99,,,0.35,PyWeather,2013-11-14 14:34:00,
2013-11-14 15:44:00,60.3,54.7,30.10,NNE,21,3.8,7.0,82,-99.99,,,0.35,PyWeather,2013-11-14 14:44:00,
2013-11-14 15:49:00,60.3,54.7,30.10,NE,42,2.2,4.9,82,-99.99,,,0.35,PyWeather,2013-11-14 14:49:00,
2013-11-14 15:59:00,60.3,54.7,30.10,NNE,14,3.4,7.0,82,-99.99,,,0.35,PyWeather,2013-11-14 14:59:00,
2013-11-14 16:08:00,60.3,54.1,30.10,NE,53,3.1,7.0,80,-99.99,,,0.35,PyWeather,2013-11-14 15:08:00,
2013-11-14 16:18:00,60.4,54.3,30.09,NE,38,3.8,7.0,80,-99.99,,,0.35,PyWeather,2013-11-14 15:18:00,
2013-11-14 16:28:00,60.4,54.3,30.09,NE,46,3.8,8.1,80,-99.99,,,0.35,PyWeather,2013-11-14 15:28:00,
2013-11-14 16:38:00,60.3,54.1,30.09,ENE,58,3.4,8.1,80,-99.99,,,0.35,PyWeather,2013-11-14 15:38:00,
2013-11-14 16:48:00,60.3,54.1,30.09,ENE,57,3.1,7.0,80,-99.99,,,0.35,PyWeather,2013-11-14 15:48:00,
2013-11-14 16:57:00,60.3,54.3,30.10,NE,40,4.3,8.1,81,-99.99,,,0.35,PyWeather,2013-11-14 15:57:00,
2013-11-14 17:07:00,59.9,54.1,30.10,NE,42,5.2,9.0,81,-99.99,,,0.35,PyWeather,2013-11-14 16:07:00,
2013-11-14 17:17:00,59.7,54.0,30.09,NE,50,4.0,6.1,81,-99.99,,,0.35,PyWeather,2013-11-14 16:17:00,
2013-11-14 17:27:00,59.5,53.8,30.10,NE,47,4.3,7.0,81,-99.99,,,0.35,PyWeather,2013-11-14 16:27:00,
2013-11-14 17:36:00,59.5,54.0,30.10,NE,46,4.5,8.1,82,-99.99,,,0.35,PyWeather,2013-11-14 16:36:00,
2013-11-14 17:46:00,59.4,53.8,30.11,NE,51,2.5,4.9,82,-99.99,,,0.35,PyWeather,2013-11-14 16:46:00,
2013-11-14 17:56:00,59.2,53.6,30.11,NE,44,4.0,8.1,82,-99.99,,,0.35,PyWeather,2013-11-14 16:56:00,
2013-11-14 18:06:00,58.8,53.4,30.11,NE,54,3.8,7.0,82,-99.99,,,0.35,PyWeather,2013-11-14 17:06:00,
2013-11-14 18:16:00,58.5,53.1,30.12,NE,42,3.8,6.1,82,-99.99,,,0.35,PyWeather,2013-11-14 17:16:00,
2013-11-14 18:25:00,58.1,52.3,30.12,NE,48,5.2,9.0,81,-99.99,,,0.35,PyWeather,2013-11-14 17:25:00,
2013-11-14 18:35:00,58.1,52.0,30.12,NE,36,5.2,11.0,80,-99.99,,,0.35,PyWeather,2013-11-14 17:35:00,
2013-11-14 18:45:00,58.1,52.0,30.13,NE,37,6.1,10.1,80,-99.99,,,0.35,PyWeather,2013-11-14 17:45:00,
2013-11-14 18:55:00,57.9,51.4,30.13,NE,36,3.6,9.0,79,-99.99,,,0.35,PyWeather,2013-11-14 17:55:00,
2013-11-14 19:05:00,57.7,51.3,30.13,NE,45,5.8,9.0,79,-99.99,,,0.35,PyWeather,2013-11-14 18:05:00,
2013-11-14 19:14:00,57.4,50.9,30.13,NE,46,5.4,10.1,79,-99.99,,,0.35,PyWeather,2013-11-14 18:14:00,
2013-11-14 19:24:00,57.4,50.9,30.14,NE,37,2.9,4.9,79,-99.99,,,0.35,PyWeather,2013-11-14 18:24:00,
2013-11-14 19:34:00,57.2,50.7,30.14,NE,34,3.4,6.1,79,-99.99,,,0.35,PyWeather,2013-11-14 18:34:00,
2013-11-14 19:44:00,57.2,50.7,30.13,NNE,32,0.9,2.9,79,-99.99,,,0.35,PyWeather,2013-11-14 18:44:00,
2013-11-14 19:54:00,56.8,50.4,30.13,NNE,33,1.3,4.0,79,-99.99,,,0.35,PyWeather,2013-11-14 18:54:00,
2013-11-14 20:04:00,57.0,50.9,30.13,NE,48,0.9,2.0,80,-99.99,,,0.35,PyWeather,2013-11-14 19:04:00,
2013-11-14 20:13:00,57.4,50.9,30.13,NE,47,0.7,2.9,79,-99.99,,,0.35,PyWeather,2013-11-14 19:13:00,
2013-11-14 20:23:00,57.6,51.1,30.13,NE,48,0.9,4.0,79,-99.99,,,0.35,PyWeather,2013-11-14 19:23:00,
2013-11-14 20:33:00,57.6,50.4,30.13,NE,35,3.8,7.0,77,-99.99,,,0.35,PyWeather,2013-11-14 19:33:00,
2013-11-14 20:43:00,57.6,50.0,30.13,NNE,33,2.0,4.0,76,-99.99,,,0.35,PyWeather,2013-11-14 19:43:00,
2013-11-14 20:52:00,57.6,50.0,30.13,NE,43,2.2,4.9,76,-99.99,,,0.35,PyWeather,2013-11-14 19:52:00,
2013-11-14 21:02:00,57.6,50.0,30.12,NE,43,1.6,4.0,76,-99.99,,,0.35,PyWeather,2013-11-14 20:02:00,
2013-11-14 21:12:00,57.6,49.6,30.12,NE,43,0.4,2.0,75,-99.99,,,0.35,PyWeather,2013-11-14 20:12:00,
2013-11-14 21:22:00,57.6,49.6,30.12,East,90,-999.0,-999.0,75,-99.99,,,0.35,PyWeather,2013-11-14 20:22:00,
2013-11-14 21:32:00,57.6,50.0,30.12,NW,324,2.2,4.9,76,-99.99,,,0.35,PyWeather,2013-11-14 20:32:00,
2013-11-14 21:41:00,57.0,50.9,30.11,WNW,288,0.2,2.0,80,-99.99,,,0.35,PyWeather,2013-11-14 20:41:00,
2013-11-14 21:51:00,56.8,51.1,30.11,East,90,-999.0,-999.0,81,-99.99,,,0.35,PyWeather,2013-11-14 20:51:00,
2013-11-14 22:01:00,56.5,51.1,30.11,East,90,-999.0,-999.0,82,-99.99,,,0.35,PyWeather,2013-11-14 21:01:00,
2013-11-14 22:11:00,56.1,51.1,30.11,East,90,-999.0,-999.0,83,-99.99,,,0.35,PyWeather,2013-11-14 21:11:00,
2013-11-14 22:21:00,56.1,51.1,30.11,WNW,292,-999.0,0.9,83,-99.99,,,0.35,PyWeather,2013-11-14 21:21:00,
2013-11-14 22:30:00,55.9,50.9,30.10,East,90,-999.0,-999.0,83,-99.99,,,0.35,PyWeather,2013-11-14 21:30:00,
2013-11-14 22:35:00,55.9,50.9,30.10,East,90,-999.0,-999.0,83,-99.99,,,0.35,PyWeather,2013-11-14 21:35:00,
2013-11-14 22:45:00,55.9,51.3,30.09,WNW,289,-999.0,0.9,84,-99.99,,,0.35,PyWeather,2013-11-14 21:45:00,
2013-11-14 22:55:00,55.8,51.1,30.10,North,359,-999.0,0.9,84,-99.99,,,0.35,PyWeather,2013-11-14 21:55:00,
2013-11-14 23:05:00,55.8,51.1,30.10,WNW,290,0.2,2.0,84,-99.99,,,0.35,PyWeather,2013-11-14 22:05:00,
2013-11-14 23:15:00,55.6,51.1,30.09,WNW,287,-999.0,0.9,85,-99.99,,,0.35,PyWeather,2013-11-14 22:15:00,
2013-11-14 23:24:00,55.4,50.9,30.09,East,90,-999.0,-999.0,85,-99.99,,,0.35,PyWeather,2013-11-14 22:24:00,
2013-11-14 23:34:00,55.2,50.7,30.08,SSW,205,1.8,2.9,85,-99.99,,,0.35,PyWeather,2013-11-14 22:34:00,
2013-11-14 23:44:00,54.9,50.7,30.08,SE,126,1.1,2.9,86,-99.99,,,0.35,PyWeather,2013-11-14 22:44:00,
2013-11-14 23:54:00,54.5,50.7,30.08,East,90,-999.0,-999.0,87,-99.99,,,0.35,PyWeather,2013-11-14 22:54:00,